^^
Datos históricos de la estación: Murcia-Puente Tocinos
Diario Informe para Febrero 13, 2019 Unidades:  Métrico    Inglés   Ambas
Diario Semanal Mensual Anual Configurable
  Máximo: Mínimo: Media:
Temperatura: 15.7 °C 6.2 °C 10.5 °C
Punto de rocio: 7.9 °C 4.1 °C 5.8 °C
Humedad: 88% 47% 74%
Velocidad viento: 14.8km/h 0.0km/h 5.4km/h
Racha viento: 25.7km/h - -
Viento- - SSE
Presión: 1031.8 hPa 1029.3 hPa -
Precipitación: 0.0 mm    
Historical Graphs
 
 
Tabla de datos para Febrero 13, 2019
Hora Temperatura Punto de rocio Presión Viento Velocidad viento Racha viento Humedad Intensidad lluvia(por hora) Nubes
00:00 9.5 °C 7.1 °C 1031.5 hPa Calm   1.6 km/h 85% 0.0 mm CLR
00:05 9.4 °C 7.0 °C 1031.4 hPa Calm     85% 0.0 mm CLR
00:10 9.4 °C 7.0 °C 1031.4 hPa Calm     85% 0.0 mm CLR
00:15 9.3 °C 6.9 °C 1031.4 hPa Calm     85% 0.0 mm CLR
00:20 9.2 °C 6.8 °C 1031.3 hPa Calm     85% 0.0 mm CLR
00:25 9.2 °C 6.8 °C 1031.3 hPa Calm     85% 0.0 mm CLR
00:30 9.2 °C 7.0 °C 1031.3 hPa Calm     86% 0.0 mm CLR
00:35 9.1 °C 6.9 °C 1031.3 hPa Calm     86% 0.0 mm CLR
00:40 9.1 °C 6.9 °C 1031.3 hPa Calm     86% 0.0 mm CLR
00:45 9.2 °C 7.0 °C 1031.3 hPa Calm   5.6 km/h 86% 0.0 mm CLR
00:50 9.2 °C 7.0 °C 1031.3 hPa South 2.3 km/h 5.8 km/h 86% 0.0 mm CLR
00:55 9.2 °C 7.0 °C 1031.3 hPa SSW 2.3 km/h 7.4 km/h 86% 0.0 mm CLR
01:00 9.2 °C 7.0 °C 1031.3 hPa SSW 3.2 km/h 8.0 km/h 86% 0.0 mm CLR
01:05 9.2 °C 6.8 °C 1031.3 hPa SSW 3.2 km/h 8.0 km/h 85% 0.0 mm CLR
01:10 9.2 °C 6.8 °C 1031.3 hPa SSW 4.7 km/h 5.6 km/h 85% 0.0 mm CLR
01:15 9.2 °C 6.8 °C 1031.3 hPa SSW 4.7 km/h 3.7 km/h 85% 0.0 mm CLR
01:20 9.2 °C 6.8 °C 1031.2 hPa SSW 3.2 km/h 8.0 km/h 85% 0.0 mm CLR
01:25 9.1 °C 6.7 °C 1031.2 hPa SSW 3.2 km/h 5.6 km/h 85% 0.0 mm CLR
01:30 8.9 °C 6.5 °C 1031.2 hPa SSW 4.7 km/h 7.4 km/h 85% 0.0 mm CLR
01:35 8.9 °C 6.5 °C 1031.1 hPa SSW 4.7 km/h 7.4 km/h 85% 0.0 mm CLR
01:40 8.8 °C 6.4 °C 1031.1 hPa SSW 4.7 km/h 5.8 km/h 85% 0.0 mm CLR
01:45 8.8 °C 6.4 °C 1031.1 hPa SSW 4.7 km/h 3.7 km/h 85% 0.0 mm CLR
01:50 8.7 °C 6.3 °C 1031.0 hPa SSW 2.9 km/h 3.7 km/h 85% 0.0 mm CLR
01:55 8.7 °C 6.3 °C 1031.0 hPa SSW 2.9 km/h   85% 0.0 mm CLR
02:00 8.6 °C 6.2 °C 1031.0 hPa Calm     85% 0.0 mm CLR
02:05 8.6 °C 6.2 °C 1030.9 hPa Calm   3.7 km/h 85% 0.0 mm CLR
02:10 8.6 °C 6.2 °C 1030.9 hPa Calm     85% 0.0 mm CLR
02:15 8.4 °C 5.8 °C 1030.9 hPa Calm   7.4 km/h 84% 0.0 mm CLR
02:20 8.2 °C 5.7 °C 1030.8 hPa SSE 3.2 km/h 8.0 km/h 84% 0.0 mm CLR
02:25 8.1 °C 5.7 °C 1030.8 hPa SSE 2.9 km/h 7.4 km/h 85% 0.0 mm CLR
02:30 7.9 °C 5.7 °C 1030.8 hPa SSE 3.9 km/h 7.4 km/h 86% 0.0 mm CLR
02:35 7.9 °C 5.7 °C 1030.7 hPa SSE 3.9 km/h 5.6 km/h 86% 0.0 mm CLR
02:40 7.9 °C 5.9 °C 1030.7 hPa SSE 3.2 km/h 9.7 km/h 87% 0.0 mm CLR
02:45 7.9 °C 6.1 °C 1030.7 hPa SSW 4.7 km/h 5.6 km/h 88% 0.0 mm CLR
02:50 8.0 °C 5.9 °C 1030.6 hPa SSW 5.0 km/h 3.9 km/h 87% 0.0 mm CLR
02:55 8.1 °C 6.1 °C 1030.6 hPa SSW 5.0 km/h 3.7 km/h 87% 0.0 mm CLR
03:00 8.1 °C 6.1 °C 1030.6 hPa SSW 3.2 km/h 8.0 km/h 87% 0.0 mm CLR
03:05 8.1 °C 6.1 °C 1030.6 hPa SSW 3.2 km/h 5.6 km/h 87% 0.0 mm CLR
03:10 7.9 °C 5.9 °C 1030.6 hPa SSW 2.9 km/h 5.6 km/h 87% 0.0 mm CLR
03:15 7.9 °C 5.9 °C 1030.6 hPa SSW 2.9 km/h 3.7 km/h 87% 0.0 mm CLR
03:20 7.8 °C 5.8 °C 1030.6 hPa SSW 2.9 km/h   87% 0.0 mm CLR
03:25 7.8 °C 5.8 °C 1030.6 hPa SSW 2.9 km/h   87% 0.0 mm CLR
03:30 7.8 °C 5.8 °C 1030.6 hPa Calm     87% 0.0 mm CLR
03:35 7.8 °C 5.8 °C 1030.5 hPa Calm   5.6 km/h 87% 0.0 mm CLR
03:40 7.8 °C 5.8 °C 1030.5 hPa SSW 2.3 km/h 7.4 km/h 87% 0.0 mm CLR
03:45 7.7 °C 5.7 °C 1030.5 hPa SSW 2.3 km/h 5.6 km/h 87% 0.0 mm CLR
03:50 7.7 °C 5.7 °C 1030.4 hPa SSW 3.9 km/h 7.4 km/h 87% 0.0 mm CLR
03:55 7.7 °C 5.7 °C 1030.4 hPa SSW 3.9 km/h 7.4 km/h 87% 0.0 mm CLR
04:00 7.6 °C 5.6 °C 1030.4 hPa SSW 3.2 km/h 8.0 km/h 87% 0.0 mm CLR
04:05 7.6 °C 5.6 °C 1030.2 hPa SSW 3.9 km/h 5.6 km/h 87% 0.0 mm CLR
04:10 7.6 °C 5.6 °C 1030.2 hPa SSW 3.9 km/h 5.6 km/h 87% 0.0 mm CLR
04:15 7.6 °C 5.6 °C 1030.2 hPa SSW 3.9 km/h 7.4 km/h 87% 0.0 mm CLR
04:20 7.5 °C 5.5 °C 1030.1 hPa SSW 3.9 km/h 5.6 km/h 87% 0.0 mm CLR
04:25 7.5 °C 5.5 °C 1030.1 hPa SSW 3.9 km/h 7.4 km/h 87% 0.0 mm CLR
04:30 7.4 °C 5.4 °C 1030.1 hPa SSW 3.2 km/h 6.4 km/h 87% 0.0 mm CLR
04:35 7.4 °C 5.4 °C 1030.0 hPa SSW 3.9 km/h 7.4 km/h 87% 0.0 mm CLR
04:40 7.3 °C 5.3 °C 1030.0 hPa SSW 3.9 km/h 5.6 km/h 87% 0.0 mm CLR
04:45 7.1 °C 4.9 °C 1030.0 hPa SSW 3.9 km/h 7.4 km/h 86% 0.0 mm CLR
04:50 7.1 °C 5.1 °C 1030.1 hPa South 3.9 km/h 7.6 km/h 87% 0.0 mm CLR
04:55 7.0 °C 5.0 °C 1030.1 hPa South 3.9 km/h 5.6 km/h 87% 0.0 mm CLR
05:00 7.0 °C 5.0 °C 1030.1 hPa South 4.8 km/h 8.0 km/h 87% 0.0 mm CLR
05:05 6.9 °C 4.9 °C 1030.1 hPa SSW 5.0 km/h 9.3 km/h 87% 0.0 mm CLR
05:10 6.9 °C 5.1 °C 1030.1 hPa SSW 5.0 km/h 5.6 km/h 88% 0.0 mm CLR
05:15 6.8 °C 4.9 °C 1030.1 hPa SSW 5.0 km/h 8.7 km/h 88% 0.0 mm CLR
05:20 6.7 °C 4.7 °C 1030.1 hPa South 4.7 km/h 7.4 km/h 87% 0.0 mm CLR
05:25 6.7 °C 4.7 °C 1030.1 hPa SSW 4.7 km/h 9.3 km/h 87% 0.0 mm CLR
05:30 6.6 °C 4.8 °C 1030.1 hPa South 6.4 km/h 8.4 km/h 88% 0.0 mm CLR
05:35 6.6 °C 4.8 °C 1030.0 hPa South 6.4 km/h 8.4 km/h 88% 0.0 mm CLR
05:40 6.6 °C 4.8 °C 1030.0 hPa SSW 5.8 km/h 9.3 km/h 88% 0.0 mm CLR
05:45 6.6 °C 4.8 °C 1030.0 hPa SSW 5.8 km/h 9.3 km/h 88% 0.0 mm CLR
05:50 6.6 °C 4.7 °C 1030.1 hPa SSW 4.8 km/h 9.7 km/h 88% 0.0 mm CLR
05:55 6.6 °C 4.8 °C 1030.1 hPa SSW 5.8 km/h 7.4 km/h 88% 0.0 mm CLR
06:00 6.6 °C 4.8 °C 1030.1 hPa SSW 4.8 km/h 8.0 km/h 88% 0.0 mm CLR
06:05 6.6 °C 4.6 °C 1030.0 hPa SSW 5.0 km/h 7.4 km/h 87% 0.0 mm CLR
06:10 6.6 °C 4.6 °C 1030.0 hPa SSW 5.8 km/h 7.4 km/h 87% 0.0 mm CLR
06:15 6.5 °C 4.5 °C 1030.0 hPa South 5.8 km/h 8.4 km/h 87% 0.0 mm CLR
06:20 6.4 °C 4.4 °C 1030.1 hPa South 5.8 km/h 11.9 km/h 87% 0.0 mm CLR
06:25 6.4 °C 4.4 °C 1030.1 hPa SSW 5.8 km/h 9.3 km/h 87% 0.0 mm CLR
06:30 6.4 °C 4.4 °C 1030.1 hPa SSW 8.0 km/h 11.3 km/h 87% 0.0 mm CLR
06:35 6.4 °C 4.6 °C 1030.0 hPa South 6.9 km/h 11.1 km/h 88% 0.0 mm CLR
06:40 6.3 °C 4.3 °C 1030.0 hPa South 7.6 km/h 11.1 km/h 87% 0.0 mm CLR
06:45 6.3 °C 4.3 °C 1030.0 hPa South 7.6 km/h 9.3 km/h 87% 0.0 mm CLR
06:50 6.3 °C 4.3 °C 1030.2 hPa South 6.9 km/h 9.3 km/h 87% 0.0 mm CLR
06:55 6.2 °C 4.2 °C 1030.2 hPa South 6.9 km/h 9.3 km/h 87% 0.0 mm CLR
07:00 6.2 °C 4.2 °C 1030.2 hPa South 8.0 km/h 9.7 km/h 87% 0.0 mm CLR
07:05 6.2 °C 4.2 °C 1030.3 hPa SSW 6.4 km/h 9.3 km/h 87% 0.0 mm CLR
07:10 6.2 °C 4.3 °C 1030.3 hPa South 6.4 km/h 9.3 km/h 88% 0.0 mm CLR
07:15 6.2 °C 4.2 °C 1030.3 hPa SSW 6.4 km/h 11.1 km/h 87% 0.0 mm CLR
07:20 6.3 °C 4.3 °C 1030.4 hPa SSW 7.6 km/h 9.3 km/h 87% 0.0 mm CLR
07:25 6.4 °C 4.6 °C 1030.4 hPa SSW 7.6 km/h 14.8 km/h 88% 0.0 mm CLR
07:30 6.5 °C 4.5 °C 1030.4 hPa SW 7.6 km/h 9.3 km/h 87% 0.0 mm CLR
07:35 6.6 °C 4.6 °C 1030.5 hPa SSW 7.6 km/h 9.3 km/h 87% 0.0 mm CLR
07:40 6.5 °C 4.3 °C 1030.5 hPa South 6.4 km/h 9.3 km/h 86% 0.0 mm CLR
07:45 6.4 °C 4.2 °C 1030.5 hPa SSE 6.4 km/h 10.3 km/h 86% 0.0 mm CLR
07:50 6.4 °C 4.2 °C 1030.6 hPa SSE 5.8 km/h 7.4 km/h 86% 0.0 mm CLR
07:55 6.4 °C 4.2 °C 1030.6 hPa SSE 5.8 km/h 7.4 km/h 86% 0.0 mm CLR
08:00 6.4 °C 4.2 °C 1030.6 hPa SSE 3.2 km/h 9.7 km/h 86% 0.0 mm CLR
08:05 6.3 °C 4.1 °C 1030.8 hPa SSE 4.7 km/h 7.4 km/h 86% 0.0 mm CLR
08:10 6.3 °C 4.1 °C 1030.8 hPa SSE 5.0 km/h 7.4 km/h 86% 0.0 mm CLR
08:15 6.4 °C 4.4 °C 1030.8 hPa South 5.0 km/h 9.3 km/h 87% 0.0 mm CLR
08:20 6.4 °C 4.4 °C 1030.9 hPa South 5.0 km/h 7.4 km/h 87% 0.0 mm CLR
08:25 6.6 °C 4.6 °C 1030.9 hPa South 5.0 km/h 5.6 km/h 87% 0.0 mm CLR
08:30 6.7 °C 4.7 °C 1030.9 hPa WSW 3.9 km/h 9.3 km/h 87% 0.0 mm CLR
08:35 6.9 °C 4.9 °C 1031.0 hPa SW 3.9 km/h 6.9 km/h 87% 0.0 mm CLR
08:40 6.9 °C 4.7 °C 1031.0 hPa WSW 4.7 km/h 7.4 km/h 86% 0.0 mm CLR
08:45 7.0 °C 4.8 °C 1031.0 hPa WSW 4.7 km/h 7.6 km/h 86% 0.0 mm CLR
08:50 7.2 °C 5.0 °C 1031.2 hPa WSW 5.0 km/h 7.6 km/h 86% 0.0 mm CLR
08:55 7.2 °C 5.0 °C 1031.2 hPa SW 5.0 km/h 6.9 km/h 86% 0.0 mm CLR
09:00 7.3 °C 5.1 °C 1031.2 hPa WSW 3.2 km/h 8.0 km/h 86% 0.0 mm CLR
09:05 7.4 °C 5.2 °C 1031.2 hPa WSW 4.7 km/h 7.6 km/h 86% 0.0 mm CLR
09:10 7.5 °C 5.3 °C 1031.2 hPa SW 5.0 km/h 9.3 km/h 86% 0.0 mm CLR
09:15 7.6 °C 5.4 °C 1031.2 hPa SW 5.0 km/h 9.3 km/h 86% 0.0 mm CLR
09:20 7.7 °C 5.5 °C 1031.3 hPa WSW 5.8 km/h 7.4 km/h 86% 0.0 mm CLR
09:25 7.7 °C 5.5 °C 1031.3 hPa WSW 5.8 km/h 7.4 km/h 86% 0.0 mm CLR
09:30 7.8 °C 5.6 °C 1031.3 hPa WSW 4.7 km/h 5.6 km/h 86% 0.0 mm CLR
09:35 8.0 °C 5.6 °C 1031.4 hPa SSW 4.7 km/h 5.6 km/h 85% 0.0 mm CLR
09:40 8.2 °C 5.8 °C 1031.4 hPa SSW 3.9 km/h 7.4 km/h 85% 0.0 mm CLR
09:45 8.2 °C 5.8 °C 1031.4 hPa South 3.9 km/h 8.4 km/h 85% 0.0 mm CLR
09:50 8.3 °C 5.8 °C 1031.5 hPa SW 4.7 km/h 7.4 km/h 84% 0.0 mm CLR
09:55 8.4 °C 5.8 °C 1031.5 hPa South 4.7 km/h 9.3 km/h 84% 0.0 mm CLR
10:00 8.5 °C 5.9 °C 1031.5 hPa SW 4.8 km/h 9.7 km/h 84% 0.0 mm CLR
10:05 8.6 °C 5.9 °C 1031.5 hPa SW 5.0 km/h 8.4 km/h 83% 0.0 mm CLR
10:10 8.7 °C 6.0 °C 1031.5 hPa South 5.0 km/h 9.3 km/h 83% 0.0 mm CLR
10:15 8.8 °C 5.9 °C 1031.5 hPa SW 5.0 km/h 11.1 km/h 82% 0.0 mm CLR
10:20 8.8 °C 5.9 °C 1031.5 hPa SSW 5.8 km/h 7.4 km/h 82% 0.0 mm CLR
10:25 8.9 °C 6.0 °C 1031.5 hPa SW 5.8 km/h 7.4 km/h 82% 0.0 mm CLR
10:30 8.9 °C 6.0 °C 1031.5 hPa SSW 6.4 km/h 5.6 km/h 82% 0.0 mm CLR
10:35 9.0 °C 6.1 °C 1031.6 hPa SW 6.4 km/h 10.0 km/h 82% 0.0 mm CLR
10:40 9.1 °C 6.2 °C 1031.6 hPa SSE 6.4 km/h 9.3 km/h 82% 0.0 mm CLR
10:45 9.2 °C 6.1 °C 1031.6 hPa WNW 6.4 km/h 7.4 km/h 81% 0.0 mm CLR
10:50 9.3 °C 6.2 °C 1031.7 hPa SW 5.8 km/h 7.4 km/h 81% 0.0 mm CLR
10:55 9.6 °C 6.3 °C 1031.7 hPa West 5.8 km/h 7.4 km/h 80% 0.0 mm CLR
11:00 9.7 °C 6.2 °C 1031.7 hPa WSW 4.8 km/h 12.9 km/h 79% 0.0 mm CLR
11:05 9.8 °C 6.3 °C 1031.7 hPa WSW 5.8 km/h 9.3 km/h 79% 0.0 mm CLR
11:10 9.9 °C 6.4 °C 1031.7 hPa West 6.4 km/h 7.4 km/h 79% 0.0 mm CLR
11:15 10.1 °C 6.4 °C 1031.7 hPa SSW 6.4 km/h 11.1 km/h 78% 0.0 mm CLR
11:20 10.3 °C 6.6 °C 1031.8 hPa SW 6.9 km/h 11.1 km/h 78% 0.0 mm CLR
11:25 10.3 °C 6.6 °C 1031.8 hPa WSW 6.9 km/h 7.4 km/h 78% 0.0 mm CLR
11:30 10.4 °C 6.6 °C 1031.8 hPa WSW 6.4 km/h 9.3 km/h 77% 0.0 mm CLR
11:35 10.5 °C 6.6 °C 1031.7 hPa West 6.4 km/h 11.1 km/h 77% 0.0 mm CLR
11:40 10.8 °C 6.9 °C 1031.7 hPa SE 5.8 km/h 5.6 km/h 77% 0.0 mm CLR
11:45 11.1 °C 6.8 °C 1031.7 hPa South 5.8 km/h 8.4 km/h 75% 0.0 mm CLR
11:50 11.3 °C 7.0 °C 1031.6 hPa SSW 5.0 km/h 1.9 km/h 75% 0.0 mm CLR
11:55 11.5 °C 7.0 °C 1031.6 hPa WNW 5.0 km/h 7.4 km/h 74% 0.0 mm CLR
12:00 11.6 °C 7.1 °C 1031.6 hPa WSW 3.2 km/h 8.0 km/h 74% 0.0 mm CLR
12:05 11.6 °C 7.1 °C 1031.6 hPa WSW 3.2 km/h 7.4 km/h 74% 0.0 mm CLR
12:10 11.8 °C 7.3 °C 1031.6 hPa South 4.7 km/h   74% 0.0 mm CLR
12:15 12.2 °C 7.5 °C 1031.6 hPa South 4.7 km/h 3.7 km/h 73% 0.0 mm CLR
12:20 12.4 °C 7.5 °C 1031.5 hPa SSW 2.9 km/h 3.7 km/h 72% 0.0 mm CLR
12:25 12.6 °C 7.5 °C 1031.5 hPa SSE 2.9 km/h 9.3 km/h 71% 0.0 mm CLR
12:30 12.7 °C 7.4 °C 1031.5 hPa West 3.9 km/h 5.6 km/h 70% 0.0 mm CLR
12:35 12.6 °C 7.5 °C 1031.4 hPa West 3.9 km/h 9.3 km/h 71% 0.0 mm CLR
12:40 12.7 °C 7.6 °C 1031.4 hPa West 5.0 km/h 7.4 km/h 71% 0.0 mm CLR
12:45 12.7 °C 7.4 °C 1031.4 hPa West 5.0 km/h 5.6 km/h 70% 0.0 mm CLR
12:50 12.8 °C 7.7 °C 1031.2 hPa West 4.7 km/h 3.7 km/h 71% 0.0 mm CLR
12:55 13.2 °C 7.6 °C 1031.2 hPa ESE 4.7 km/h 7.6 km/h 69% 0.0 mm CLR
13:00 13.4 °C 7.6 °C 1031.2 hPa South 3.2 km/h 8.0 km/h 68% 0.0 mm CLR
13:05 13.6 °C 7.6 °C 1030.9 hPa SSW 2.9 km/h 7.4 km/h 67% 0.0 mm CLR
13:10 13.7 °C 7.7 °C 1030.9 hPa SSE 5.0 km/h 7.4 km/h 67% 0.0 mm CLR
13:15 14.0 °C 7.7 °C 1030.9 hPa ENE 5.0 km/h 13.7 km/h 66% 0.0 mm CLR
13:20 13.9 °C 7.9 °C 1030.8 hPa NE 5.0 km/h 7.4 km/h 67% 0.0 mm CLR
13:25 14.1 °C 7.8 °C 1030.8 hPa West 5.0 km/h 5.6 km/h 66% 0.0 mm CLR
13:30 14.2 °C 7.7 °C 1030.8 hPa NE 3.2 km/h 11.1 km/h 65% 0.0 mm CLR
13:35 14.4 °C 7.9 °C 1030.6 hPa SE 3.2 km/h 7.4 km/h 65% 0.0 mm CLR
13:40 14.4 °C 7.7 °C 1030.6 hPa NE 5.8 km/h 13.0 km/h 64% 0.0 mm CLR
13:45 14.4 °C 7.7 °C 1030.6 hPa NE 5.8 km/h 13.0 km/h 64% 0.0 mm CLR
13:50 14.4 °C 7.7 °C 1030.4 hPa ENE 7.6 km/h 9.3 km/h 64% 0.0 mm CLR
13:55 14.4 °C 7.4 °C 1030.4 hPa NNE 7.6 km/h 16.7 km/h 63% 0.0 mm CLR
14:00 14.6 °C 7.6 °C 1030.4 hPa NE 8.0 km/h 14.5 km/h 63% 0.0 mm CLR
14:05 14.7 °C 7.7 °C 1030.2 hPa NE 8.4 km/h 9.3 km/h 63% 0.0 mm CLR
14:10 14.7 °C 7.0 °C 1030.2 hPa NNE 7.6 km/h 18.5 km/h 60% 0.0 mm CLR
14:15 14.7 °C 6.8 °C 1030.2 hPa NE 7.6 km/h 16.7 km/h 59% 0.0 mm CLR
14:20 14.8 °C 6.6 °C 1030.1 hPa NE 10.0 km/h 24.1 km/h 58% 0.0 mm CLR
14:25 14.7 °C 6.5 °C 1030.1 hPa NE 10.0 km/h 18.5 km/h 58% 0.0 mm CLR
14:30 14.8 °C 6.3 °C 1030.1 hPa NNE 14.8 km/h 11.9 km/h 57% 0.0 mm CLR
14:34 15.0 °C 6.0 °C 1029.9 hPa NE 14.8 km/h 20.4 km/h 55% 0.0 mm CLR
14:40 15.1 °C 6.1 °C 1029.9 hPa East 11.1 km/h 14.8 km/h 55% 0.0 mm CLR
14:45 15.2 °C 5.9 °C 1029.9 hPa NE 11.1 km/h 18.3 km/h 54% 0.0 mm CLR
14:50 15.2 °C 5.9 °C 1029.7 hPa NNE 9.5 km/h 13.7 km/h 54% 0.0 mm CLR
14:55 15.3 °C 6.1 °C 1029.7 hPa ENE 9.5 km/h 11.1 km/h 54% 0.0 mm CLR
15:00 15.3 °C 5.8 °C 1029.7 hPa ENE 9.7 km/h 22.5 km/h 53% 0.0 mm CLR
15:05 15.4 °C 5.6 °C 1029.6 hPa North 10.0 km/h 13.0 km/h 52% 0.0 mm CLR
15:10 15.6 °C 5.2 °C 1029.6 hPa NE 8.7 km/h 14.8 km/h 50% 0.0 mm CLR
15:15 15.6 °C 5.2 °C 1029.6 hPa East 8.7 km/h 14.8 km/h 50% 0.0 mm CLR
15:20 15.7 °C 6.2 °C 1029.5 hPa ENE 10.0 km/h 11.1 km/h 53% 0.0 mm CLR
15:25 15.6 °C 6.1 °C 1029.5 hPa ENE 10.0 km/h 22.2 km/h 53% 0.0 mm CLR
15:30 15.7 °C 5.9 °C 1029.5 hPa East 12.2 km/h 18.5 km/h 52% 0.0 mm CLR
15:35 15.7 °C 5.6 °C 1029.4 hPa NE 12.2 km/h 13.0 km/h 51% 0.0 mm CLR
15:40 15.7 °C 5.6 °C 1029.4 hPa NNE 11.1 km/h 14.8 km/h 51% 0.0 mm CLR
15:45 15.6 °C 5.2 °C 1029.4 hPa NE 11.1 km/h 20.4 km/h 50% 0.0 mm CLR
15:50 15.5 °C 5.1 °C 1029.3 hPa NE 12.2 km/h 24.1 km/h 50% 0.0 mm CLR
15:55 15.4 °C 5.3 °C 1029.3 hPa NE 12.2 km/h 20.4 km/h 51% 0.0 mm CLR
16:00 15.4 °C 5.3 °C 1029.3 hPa NE 12.9 km/h 20.9 km/h 51% 0.0 mm CLR
16:05 15.6 °C 4.9 °C 1029.4 hPa ENE 13.0 km/h 18.5 km/h 49% 0.0 mm CLR
16:10 15.6 °C 4.3 °C 1029.4 hPa East 11.9 km/h 23.3 km/h 47% 0.0 mm CLR
16:15 15.5 °C 4.2 °C 1029.4 hPa ENE 11.9 km/h 22.2 km/h 47% 0.0 mm CLR
16:20 15.5 °C 4.2 °C 1029.5 hPa NNE 11.1 km/h 18.5 km/h 47% 0.0 mm CLR
16:25 15.4 °C 4.7 °C 1029.5 hPa NE 11.1 km/h 24.1 km/h 49% 0.0 mm CLR
16:30 15.3 °C 4.9 °C 1029.5 hPa NE 13.0 km/h 22.2 km/h 50% 0.0 mm CLR
16:35 15.3 °C 4.6 °C 1029.6 hPa East 13.0 km/h 19.8 km/h 49% 0.0 mm CLR
16:40 15.3 °C 4.9 °C 1029.6 hPa ENE 11.1 km/h 16.7 km/h 50% 0.0 mm CLR
16:45 15.3 °C 4.9 °C 1029.6 hPa NE 11.1 km/h 24.1 km/h 50% 0.0 mm CLR
16:50 15.1 °C 4.7 °C 1029.7 hPa NE 11.1 km/h 20.4 km/h 50% 0.0 mm CLR
16:55 14.9 °C 5.1 °C 1029.7 hPa NE 11.1 km/h 16.7 km/h 52% 0.0 mm CLR
17:00 14.9 °C 5.1 °C 1029.7 hPa ENE 12.9 km/h 25.7 km/h 52% 0.0 mm CLR
17:05 14.9 °C 4.8 °C 1029.6 hPa NE 13.0 km/h 16.1 km/h 51% 0.0 mm CLR
17:10 14.8 °C 5.1 °C 1029.6 hPa East 11.1 km/h 17.2 km/h 52% 0.0 mm CLR
17:15 14.8 °C 5.1 °C 1029.6 hPa ENE 11.1 km/h 10.0 km/h 52% 0.0 mm CLR
17:20 14.7 °C 5.2 °C 1029.6 hPa ENE 11.1 km/h 22.2 km/h 53% 0.0 mm CLR
17:25 14.7 °C 4.9 °C 1029.6 hPa East 11.1 km/h 16.7 km/h 52% 0.0 mm CLR
17:30 14.7 °C 4.9 °C 1029.6 hPa ESE 8.7 km/h 11.1 km/h 52% 0.0 mm CLR
17:35 14.7 °C 4.7 °C 1029.6 hPa ENE 8.7 km/h 14.8 km/h 51% 0.0 mm CLR
17:40 14.5 °C 4.8 °C 1029.6 hPa East 8.7 km/h 13.0 km/h 52% 0.0 mm CLR
17:45 14.4 °C 4.9 °C 1029.6 hPa ENE 8.7 km/h 7.4 km/h 53% 0.0 mm CLR
17:50 14.4 °C 5.2 °C 1029.7 hPa NE 8.4 km/h 13.7 km/h 54% 0.0 mm CLR
17:55 14.3 °C 5.1 °C 1029.7 hPa ENE 8.4 km/h 14.8 km/h 54% 0.0 mm CLR
18:00 14.3 °C 5.1 °C 1029.7 hPa NE 9.7 km/h 19.3 km/h 54% 0.0 mm CLR
18:05 14.2 °C 5.0 °C 1029.8 hPa East 10.0 km/h 14.0 km/h 54% 0.0 mm CLR
18:10 14.1 °C 5.2 °C 1029.8 hPa NE 10.3 km/h 18.5 km/h 55% 0.0 mm CLR
18:15 13.9 °C 5.3 °C 1029.8 hPa NNE 10.3 km/h 18.5 km/h 56% 0.0 mm CLR
18:20 13.9 °C 5.5 °C 1029.8 hPa NE 10.3 km/h 14.8 km/h 57% 0.0 mm CLR
18:25 13.8 °C 5.7 °C 1029.8 hPa ENE 10.3 km/h 11.1 km/h 58% 0.0 mm CLR
18:30 13.7 °C 5.6 °C 1029.8 hPa NE 8.7 km/h 11.1 km/h 58% 0.0 mm CLR
18:35 13.6 °C 5.5 °C 1029.9 hPa ENE 8.7 km/h 14.8 km/h 58% 0.0 mm CLR
18:40 13.4 °C 5.6 °C 1029.9 hPa NNE 8.4 km/h 9.3 km/h 59% 0.0 mm CLR
18:45 13.3 °C 5.4 °C 1029.9 hPa NE 8.4 km/h 13.0 km/h 59% 0.0 mm CLR
18:50 13.2 °C 5.6 °C 1030.0 hPa NE 7.6 km/h 13.0 km/h 60% 0.0 mm CLR
18:55 13.2 °C 5.8 °C 1030.0 hPa NE 7.6 km/h 7.4 km/h 61% 0.0 mm CLR
19:00 13.1 °C 5.7 °C 1030.0 hPa NE 8.0 km/h 11.3 km/h 61% 0.0 mm CLR
19:05 12.9 °C 5.8 °C 1030.2 hPa NE 6.9 km/h 13.0 km/h 62% 0.0 mm CLR
19:10 12.9 °C 6.0 °C 1030.2 hPa NE 6.9 km/h 9.3 km/h 63% 0.0 mm CLR
19:15 12.8 °C 5.9 °C 1030.2 hPa NE 6.9 km/h 9.3 km/h 63% 0.0 mm CLR
19:20 12.7 °C 6.1 °C 1030.3 hPa NNE 6.9 km/h 7.4 km/h 64% 0.0 mm CLR
19:25 12.6 °C 6.2 °C 1030.3 hPa NE 6.9 km/h 7.6 km/h 65% 0.0 mm CLR
19:30 12.6 °C 6.2 °C 1030.3 hPa NE 6.4 km/h 9.3 km/h 65% 0.0 mm CLR
19:35 12.5 °C 6.1 °C 1030.4 hPa NE 6.4 km/h 7.4 km/h 65% 0.0 mm CLR
19:40 12.4 °C 6.2 °C 1030.4 hPa NNE 5.0 km/h 7.4 km/h 66% 0.0 mm CLR
19:45 12.3 °C 6.1 °C 1030.4 hPa North 5.0 km/h 9.3 km/h 66% 0.0 mm CLR
19:50 12.2 °C 6.2 °C 1030.4 hPa NE 5.8 km/h 8.4 km/h 67% 0.0 mm CLR
19:55 12.1 °C 6.2 °C 1030.4 hPa NE 5.8 km/h 8.4 km/h 67% 0.0 mm CLR
20:00 12.0 °C 6.3 °C 1030.4 hPa NE 4.8 km/h 9.7 km/h 68% 0.0 mm CLR
20:05 11.9 °C 6.2 °C 1030.4 hPa NE 5.8 km/h 8.7 km/h 68% 0.0 mm CLR
20:10 11.9 °C 6.2 °C 1030.4 hPa NE 5.8 km/h 7.4 km/h 68% 0.0 mm CLR
20:15 11.8 °C 6.1 °C 1030.4 hPa NE 5.8 km/h 7.4 km/h 68% 0.0 mm CLR
20:20 11.8 °C 6.1 °C 1030.5 hPa NE 4.7 km/h 7.4 km/h 68% 0.0 mm CLR
20:25 11.8 °C 6.1 °C 1030.5 hPa NE 4.7 km/h 7.4 km/h 68% 0.0 mm CLR
20:30 11.7 °C 6.2 °C 1030.5 hPa NE 4.7 km/h 5.8 km/h 69% 0.0 mm CLR
20:35 11.6 °C 6.1 °C 1030.6 hPa NE 4.7 km/h 3.7 km/h 69% 0.0 mm CLR
20:40 11.5 °C 6.2 °C 1030.6 hPa NE 3.2 km/h 3.7 km/h 70% 0.0 mm CLR
20:45 11.4 °C 6.1 °C 1030.6 hPa NE 3.2 km/h   70% 0.0 mm CLR
20:50 11.3 °C 6.0 °C 1030.6 hPa NE 2.3 km/h   70% 0.0 mm CLR
20:55 11.3 °C 6.2 °C 1030.6 hPa NE 2.3 km/h 3.7 km/h 71% 0.0 mm CLR
21:00 11.2 °C 6.1 °C 1030.6 hPa Calm   3.2 km/h 71% 0.0 mm CLR
21:05 11.2 °C 6.1 °C 1030.7 hPa Calm     71% 0.0 mm CLR
21:10 11.2 °C 6.1 °C 1030.7 hPa Calm     71% 0.0 mm CLR
21:15 11.1 °C 6.1 °C 1030.7 hPa Calm   5.6 km/h 71% 0.0 mm CLR
21:20 11.1 °C 6.2 °C 1030.7 hPa NE 2.3 km/h 3.7 km/h 72% 0.0 mm CLR
21:25 11.0 °C 6.2 °C 1030.7 hPa NE 2.3 km/h 2.9 km/h 72% 0.0 mm CLR
21:30 10.9 °C 6.1 °C 1030.7 hPa NE 2.3 km/h 4.7 km/h 72% 0.0 mm CLR
21:35 10.9 °C 6.2 °C 1030.7 hPa NE 2.3 km/h   73% 0.0 mm CLR
21:40 10.9 °C 6.2 °C 1030.7 hPa Calm     73% 0.0 mm CLR
21:45 10.9 °C 6.2 °C 1030.7 hPa Calm   3.7 km/h 73% 0.0 mm CLR
21:50 10.9 °C 6.2 °C 1030.8 hPa Calm   3.9 km/h 73% 0.0 mm CLR
21:55 10.9 °C 6.2 °C 1030.8 hPa Calm   3.7 km/h 73% 0.0 mm CLR
22:00 10.9 °C 6.2 °C 1030.8 hPa NE 1.6 km/h 1.6 km/h 73% 0.0 mm CLR
22:05 10.9 °C 6.2 °C 1030.9 hPa NW 2.3 km/h 7.4 km/h 73% 0.0 mm CLR
22:10 10.9 °C 6.2 °C 1030.9 hPa NW 2.3 km/h 6.9 km/h 73% 0.0 mm CLR
22:15 10.8 °C 6.2 °C 1030.9 hPa WNW 2.3 km/h 7.4 km/h 73% 0.0 mm CLR
22:20 10.8 °C 6.2 °C 1031.1 hPa WNW 4.7 km/h 3.7 km/h 73% 0.0 mm CLR
22:25 10.8 °C 6.2 °C 1031.1 hPa WNW 4.7 km/h   73% 0.0 mm CLR
22:30 10.8 °C 6.2 °C 1031.1 hPa Calm     73% 0.0 mm CLR
22:35 10.8 °C 6.2 °C 1031.2 hPa Calm     73% 0.0 mm CLR
22:40 10.9 °C 6.2 °C 1031.2 hPa Calm     73% 0.0 mm CLR
22:45 10.9 °C 6.2 °C 1031.2 hPa Calm     73% 0.0 mm CLR
22:50 10.9 °C 6.2 °C 1031.2 hPa Calm   3.7 km/h 73% 0.0 mm CLR
22:55 10.9 °C 6.2 °C 1031.2 hPa Calm   5.6 km/h 73% 0.0 mm CLR
23:00 10.9 °C 6.2 °C 1031.2 hPa SE 1.6 km/h 3.2 km/h 73% 0.0 mm CLR
23:05 10.9 °C 6.2 °C 1031.3 hPa SE 2.3 km/h 5.6 km/h 73% 0.0 mm CLR
23:10 11.0 °C 6.3 °C 1031.3 hPa SE 2.3 km/h 7.4 km/h 73% 0.0 mm CLR
23:15 11.0 °C 6.3 °C 1031.3 hPa SE 2.3 km/h 5.6 km/h 73% 0.0 mm CLR
23:20 11.0 °C 6.3 °C 1031.3 hPa SE 2.9 km/h 3.7 km/h 73% 0.0 mm CLR
23:25 11.0 °C 6.3 °C 1031.3 hPa SE 2.9 km/h   73% 0.0 mm CLR
23:30 11.1 °C 6.4 °C 1031.3 hPa SE 2.3 km/h 4.7 km/h 73% 0.0 mm CLR
23:35 11.1 °C 6.4 °C 1031.3 hPa SE 2.3 km/h 7.4 km/h 73% 0.0 mm CLR
23:40 11.0 °C 6.3 °C 1031.3 hPa SSW 3.9 km/h 7.4 km/h 73% 0.0 mm CLR
23:45 11.0 °C 6.2 °C 1031.3 hPa SSE 3.9 km/h 7.4 km/h 72% 0.0 mm CLR
23:50 10.9 °C 6.1 °C 1031.3 hPa SSE 5.8 km/h 7.4 km/h 72% 0.0 mm CLR
23:55 10.9 °C 6.1 °C 1031.3 hPa SSE 5.8 km/h 9.3 km/h 72% 0.0 mm CLR
Murcia-Puente Tocinos, España
Compliments of Weather Underground - 2.75 mb

La estación de MeteoMurcia.com, publica sus datos en los siguientes proyectos:

Weather Underground PWS IMURCIAP2 Meteoclimatic www.awekas.at

W3Counter
Web Analytics